sensor_id;sensor_type;location;lat;lon;timestamp;P1;durP1;ratioP1;P2;durP2;ratioP2
69183;SDS011;56291;53.960;27.550;2023-03-23T05:17:18;13.20;;;7.95;;
69183;SDS011;56291;53.960;27.550;2023-03-23T05:19:44;16.17;;;8.15;;
69183;SDS011;56291;53.960;27.550;2023-03-23T05:22:13;16.00;;;8.40;;
69183;SDS011;56291;53.960;27.550;2023-03-23T05:24:39;14.95;;;8.15;;
69183;SDS011;56291;53.960;27.550;2023-03-23T05:27:07;17.00;;;9.10;;
69183;SDS011;56291;53.960;27.550;2023-03-23T05:29:37;19.17;;;9.05;;
69183;SDS011;56291;53.960;27.550;2023-03-23T05:32:06;17.88;;;9.85;;
69183;SDS011;56291;53.960;27.550;2023-03-23T05:34:33;14.23;;;8.50;;
69183;SDS011;56291;53.960;27.550;2023-03-23T05:37:01;16.80;;;9.07;;
69183;SDS011;56291;53.960;27.550;2023-03-23T05:39:28;15.13;;;9.43;;
69183;SDS011;56291;53.960;27.550;2023-03-23T05:41:56;14.43;;;8.88;;
69183;SDS011;56291;53.960;27.550;2023-03-23T05:44:22;17.83;;;9.80;;
69183;SDS011;56291;53.960;27.550;2023-03-23T05:46:49;14.93;;;8.00;;
69183;SDS011;56291;53.960;27.550;2023-03-23T05:49:16;20.77;;;10.07;;
69183;SDS011;56291;53.960;27.550;2023-03-23T05:51:43;18.42;;;8.90;;
69183;SDS011;56291;53.960;27.550;2023-03-23T05:54:11;13.57;;;8.63;;
69183;SDS011;56291;53.960;27.550;2023-03-23T05:56:38;17.73;;;9.80;;
69183;SDS011;56291;53.960;27.550;2023-03-23T05:59:04;16.40;;;9.30;;
69183;SDS011;56291;53.960;27.550;2023-03-23T06:01:30;14.68;;;8.77;;
69183;SDS011;56291;53.960;27.550;2023-03-23T06:03:57;18.80;;;9.95;;
69183;SDS011;56291;53.960;27.550;2023-03-23T06:06:24;18.02;;;9.75;;
69183;SDS011;56291;53.960;27.550;2023-03-23T06:08:51;17.10;;;8.38;;
69183;SDS011;56291;53.960;27.550;2023-03-23T06:11:17;16.33;;;8.57;;
69183;SDS011;56291;53.960;27.550;2023-03-23T06:13:44;17.35;;;8.30;;
69183;SDS011;56291;53.960;27.550;2023-03-23T06:16:10;16.13;;;8.10;;
69183;SDS011;56291;53.960;27.550;2023-03-23T06:18:37;14.85;;;8.20;;
69183;SDS011;56291;53.960;27.550;2023-03-23T06:21:05;14.27;;;7.70;;
69183;SDS011;56291;53.960;27.550;2023-03-23T06:23:33;16.48;;;8.18;;
69183;SDS011;56291;53.960;27.550;2023-03-23T06:26:01;15.88;;;8.45;;
69183;SDS011;56291;53.960;27.550;2023-03-23T06:28:31;13.27;;;8.02;;
69183;SDS011;56291;53.960;27.550;2023-03-23T06:31:01;17.27;;;8.38;;
69183;SDS011;56291;53.960;27.550;2023-03-23T06:33:33;15.50;;;8.20;;
69183;SDS011;56291;53.960;27.550;2023-03-23T06:36:03;11.82;;;7.40;;
69183;SDS011;56291;53.960;27.550;2023-03-23T06:38:36;15.40;;;7.97;;
69183;SDS011;56291;53.960;27.550;2023-03-23T06:41:05;15.18;;;8.57;;
69183;SDS011;56291;53.960;27.550;2023-03-23T06:43:32;13.23;;;7.97;;
69183;SDS011;56291;53.960;27.550;2023-03-23T06:46:04;16.92;;;8.38;;
69183;SDS011;56291;53.960;27.550;2023-03-23T06:48:31;18.10;;;8.05;;
69183;SDS011;56291;53.960;27.550;2023-03-23T06:50:58;14.82;;;8.80;;
69183;SDS011;56291;53.960;27.550;2023-03-23T06:53:25;15.57;;;8.65;;
69183;SDS011;56291;53.960;27.550;2023-03-23T06:55:54;16.75;;;9.10;;
69183;SDS011;56291;53.960;27.550;2023-03-23T06:58:22;16.42;;;8.68;;
69183;SDS011;56291;53.960;27.550;2023-03-23T07:00:57;15.75;;;7.85;;
69183;SDS011;56291;53.960;27.550;2023-03-23T07:03:45;15.85;;;8.43;;
69183;SDS011;56291;53.960;27.550;2023-03-23T07:06:11;14.48;;;8.27;;
69183;SDS011;56291;53.960;27.550;2023-03-23T07:08:40;14.88;;;8.10;;
69183;SDS011;56291;53.960;27.550;2023-03-23T07:11:09;15.32;;;8.27;;
69183;SDS011;56291;53.960;27.550;2023-03-23T07:13:35;13.27;;;8.27;;
69183;SDS011;56291;53.960;27.550;2023-03-23T07:16:06;12.00;;;7.43;;
69183;SDS011;56291;53.960;27.550;2023-03-23T07:18:34;14.70;;;8.52;;
69183;SDS011;56291;53.960;27.550;2023-03-23T07:24:31;15.23;;;7.55;;
69183;SDS011;56291;53.960;27.550;2023-03-23T07:27:11;14.35;;;8.45;;
69183;SDS011;56291;53.960;27.550;2023-03-23T07:29:41;15.27;;;9.18;;
69183;SDS011;56291;53.960;27.550;2023-03-23T07:32:10;16.50;;;8.73;;
69183;SDS011;56291;53.960;27.550;2023-03-23T07:35:06;18.52;;;8.60;;
69183;SDS011;56291;53.960;27.550;2023-03-23T07:37:34;15.43;;;8.98;;
69183;SDS011;56291;53.960;27.550;2023-03-23T07:40:01;22.30;;;9.35;;
69183;SDS011;56291;53.960;27.550;2023-03-23T07:42:36;16.45;;;8.90;;
69183;SDS011;56291;53.960;27.550;2023-03-23T07:45:04;15.90;;;8.95;;
69183;SDS011;56291;53.960;27.550;2023-03-23T07:47:34;15.05;;;8.25;;
69183;SDS011;56291;53.960;27.550;2023-03-23T07:50:01;17.63;;;9.07;;
69183;SDS011;56291;53.960;27.550;2023-03-23T07:52:27;16.77;;;8.77;;
69183;SDS011;56291;53.960;27.550;2023-03-23T07:54:56;17.25;;;9.05;;
69183;SDS011;56291;53.960;27.550;2023-03-23T07:57:22;13.80;;;7.68;;
69183;SDS011;56291;53.960;27.550;2023-03-23T07:59:51;13.40;;;8.50;;
69183;SDS011;56291;53.960;27.550;2023-03-23T08:02:17;14.52;;;8.38;;
69183;SDS011;56291;53.960;27.550;2023-03-23T08:04:44;18.15;;;9.63;;
69183;SDS011;56291;53.960;27.550;2023-03-23T08:07:10;17.80;;;9.73;;
69183;SDS011;56291;53.960;27.550;2023-03-23T08:09:37;14.23;;;9.15;;
69183;SDS011;56291;53.960;27.550;2023-03-23T08:12:09;12.85;;;7.60;;
69183;SDS011;56291;53.960;27.550;2023-03-23T08:14:39;14.93;;;7.80;;
69183;SDS011;56291;53.960;27.550;2023-03-23T08:17:08;13.57;;;7.70;;
69183;SDS011;56291;53.960;27.550;2023-03-23T08:19:37;15.98;;;8.70;;
69183;SDS011;56291;53.960;27.550;2023-03-23T08:22:06;16.08;;;8.63;;
69183;SDS011;56291;53.960;27.550;2023-03-23T08:24:34;14.00;;;8.68;;
69183;SDS011;56291;53.960;27.550;2023-03-23T08:27:03;17.15;;;8.63;;
69183;SDS011;56291;53.960;27.550;2023-03-23T08:29:32;12.57;;;8.17;;
69183;SDS011;56291;53.960;27.550;2023-03-23T08:31:58;14.57;;;9.23;;
69183;SDS011;56291;53.960;27.550;2023-03-23T08:34:27;12.90;;;8.50;;
69183;SDS011;56291;53.960;27.550;2023-03-23T08:39:23;15.50;;;9.00;;
69183;SDS011;56291;53.960;27.550;2023-03-23T08:41:51;17.73;;;9.63;;
69183;SDS011;56291;53.960;27.550;2023-03-23T08:44:27;16.80;;;9.80;;
69183;SDS011;56291;53.960;27.550;2023-03-23T08:46:57;16.00;;;9.18;;
69183;SDS011;56291;53.960;27.550;2023-03-23T08:49:24;17.13;;;8.70;;
69183;SDS011;56291;53.960;27.550;2023-03-23T08:54:21;18.67;;;9.82;;
69183;SDS011;56291;53.960;27.550;2023-03-23T08:56:47;13.27;;;8.35;;
69183;SDS011;56291;53.960;27.550;2023-03-23T08:59:25;15.43;;;8.40;;
69183;SDS011;56291;53.960;27.550;2023-03-23T09:01:52;17.90;;;9.45;;
69183;SDS011;56291;53.960;27.550;2023-03-23T09:04:20;15.18;;;9.00;;
69183;SDS011;56291;53.960;27.550;2023-03-23T09:06:49;12.02;;;8.38;;
69183;SDS011;56291;53.960;27.550;2023-03-23T09:09:15;14.98;;;9.13;;
69183;SDS011;56291;53.960;27.550;2023-03-23T09:11:42;14.63;;;9.23;;
69183;SDS011;56291;53.960;27.550;2023-03-23T09:16:40;12.02;;;8.10;;
69183;SDS011;56291;53.960;27.550;2023-03-23T09:19:10;12.00;;;7.10;;
69183;SDS011;56291;53.960;27.550;2023-03-23T09:21:38;15.50;;;9.18;;
69183;SDS011;56291;53.960;27.550;2023-03-23T09:24:10;14.63;;;8.93;;
69183;SDS011;56291;53.960;27.550;2023-03-23T09:26:36;14.82;;;8.65;;
69183;SDS011;56291;53.960;27.550;2023-03-23T09:29:03;14.88;;;8.25;;
69183;SDS011;56291;53.960;27.550;2023-03-23T09:31:29;14.30;;;9.07;;
69183;SDS011;56291;53.960;27.550;2023-03-23T09:33:58;13.65;;;8.55;;
69183;SDS011;56291;53.960;27.550;2023-03-23T09:36:26;15.85;;;9.10;;
69183;SDS011;56291;53.960;27.550;2023-03-23T09:38:56;16.90;;;8.98;;
69183;SDS011;56291;53.960;27.550;2023-03-23T09:44:20;14.75;;;8.77;;
69183;SDS011;56291;53.960;27.550;2023-03-23T09:50:21;12.40;;;7.78;;
69183;SDS011;56291;53.960;27.550;2023-03-23T09:52:58;15.60;;;9.02;;
69183;SDS011;56291;53.960;27.550;2023-03-23T09:55:43;15.27;;;8.35;;
69183;SDS011;56291;53.960;27.550;2023-03-23T10:03:43;11.15;;;7.20;;
69183;SDS011;56291;53.960;27.550;2023-03-23T10:06:13;14.30;;;9.45;;
69183;SDS011;56291;53.960;27.550;2023-03-23T10:08:50;13.13;;;7.82;;
69183;SDS011;56291;53.960;27.550;2023-03-23T10:22:45;15.38;;;8.70;;
69183;SDS011;56291;53.960;27.550;2023-03-23T10:25:42;15.10;;;9.82;;
69183;SDS011;56291;53.960;27.550;2023-03-23T10:28:35;17.90;;;9.80;;
69183;SDS011;56291;53.960;27.550;2023-03-23T10:31:04;15.27;;;9.05;;
69183;SDS011;56291;53.960;27.550;2023-03-23T10:33:56;18.67;;;9.73;;
69183;SDS011;56291;53.960;27.550;2023-03-23T10:36:28;12.68;;;8.30;;
69183;SDS011;56291;53.960;27.550;2023-03-23T10:39:19;15.75;;;8.98;;
69183;SDS011;56291;53.960;27.550;2023-03-23T10:41:48;18.43;;;9.57;;
69183;SDS011;56291;53.960;27.550;2023-03-23T10:47:00;12.52;;;8.27;;
69183;SDS011;56291;53.960;27.550;2023-03-23T10:49:56;11.43;;;7.97;;
69183;SDS011;56291;53.960;27.550;2023-03-23T10:52:34;16.65;;;9.73;;
69183;SDS011;56291;53.960;27.550;2023-03-23T10:55:18;12.27;;;8.50;;
69183;SDS011;56291;53.960;27.550;2023-03-23T10:58:33;14.65;;;8.80;;
69183;SDS011;56291;53.960;27.550;2023-03-23T11:00:48;15.85;;;10.30;;
69183;SDS011;56291;53.960;27.550;2023-03-23T11:05:48;13.40;;;9.15;;
69183;SDS011;56291;53.960;27.550;2023-03-23T11:08:19;14.75;;;8.77;;
69183;SDS011;56291;53.960;27.550;2023-03-23T11:10:56;13.93;;;9.25;;
69183;SDS011;56291;53.960;27.550;2023-03-23T11:13:29;13.02;;;7.68;;
69183;SDS011;56291;53.960;27.550;2023-03-23T11:19:11;13.65;;;9.57;;
69183;SDS011;56291;53.960;27.550;2023-03-23T11:21:47;15.00;;;9.48;;
69183;SDS011;56291;53.960;27.550;2023-03-23T11:24:17;15.27;;;9.32;;
69183;SDS011;56291;53.960;27.550;2023-03-23T11:26:55;17.73;;;10.55;;
69183;SDS011;56291;53.960;27.550;2023-03-23T11:32:31;13.63;;;8.07;;
69183;SDS011;56291;53.960;27.550;2023-03-23T11:34:59;13.55;;;8.30;;
69183;SDS011;56291;53.960;27.550;2023-03-23T11:40:27;14.20;;;9.20;;
69183;SDS011;56291;53.960;27.550;2023-03-23T11:43:06;15.95;;;9.45;;
69183;SDS011;56291;53.960;27.550;2023-03-23T11:45:39;15.27;;;8.52;;
69183;SDS011;56291;53.960;27.550;2023-03-23T11:50:56;15.88;;;9.95;;
69183;SDS011;56291;53.960;27.550;2023-03-23T11:53:52;12.10;;;8.38;;
69183;SDS011;56291;53.960;27.550;2023-03-23T11:59:26;17.65;;;9.93;;
69183;SDS011;56291;53.960;27.550;2023-03-23T12:07:54;14.60;;;8.82;;
69183;SDS011;56291;53.960;27.550;2023-03-23T12:19:30;18.00;;;9.85;;
69183;SDS011;56291;53.960;27.550;2023-03-23T12:24:52;15.35;;;9.60;;
69183;SDS011;56291;53.960;27.550;2023-03-23T12:27:42;14.70;;;7.75;;
69183;SDS011;56291;53.960;27.550;2023-03-23T12:44:48;19.00;;;9.75;;
69183;SDS011;56291;53.960;27.550;2023-03-23T12:50:18;12.98;;;8.32;;
69183;SDS011;56291;53.960;27.550;2023-03-23T12:52:53;14.18;;;8.35;;
69183;SDS011;56291;53.960;27.550;2023-03-23T12:55:35;14.10;;;8.48;;
69183;SDS011;56291;53.960;27.550;2023-03-23T12:58:10;10.30;;;6.90;;
69183;SDS011;56291;53.960;27.550;2023-03-23T13:00:56;15.00;;;8.52;;
69183;SDS011;56291;53.960;27.550;2023-03-23T13:07:05;12.55;;;7.40;;
69183;SDS011;56291;53.960;27.550;2023-03-23T13:09:13;17.98;;;8.90;;
69183;SDS011;56291;53.960;27.550;2023-03-23T13:11:47;11.15;;;6.88;;
69183;SDS011;56291;53.960;27.550;2023-03-23T13:23:09;11.85;;;7.72;;
69183;SDS011;56291;53.960;27.550;2023-03-23T13:28:18;13.85;;;8.55;;
69183;SDS011;56291;53.960;27.550;2023-03-23T13:34:04;11.95;;;7.70;;
69183;SDS011;56291;53.960;27.550;2023-03-23T13:36:51;20.00;;;8.35;;
69183;SDS011;56291;53.960;27.550;2023-03-23T13:42:18;12.95;;;8.27;;
69183;SDS011;56291;53.960;27.550;2023-03-23T13:47:28;11.27;;;7.20;;
69183;SDS011;56291;53.960;27.550;2023-03-23T13:52:52;14.40;;;7.60;;
69183;SDS011;56291;53.960;27.550;2023-03-23T13:55:42;15.60;;;8.70;;
69183;SDS011;56291;53.960;27.550;2023-03-23T13:58:21;10.15;;;7.25;;
69183;SDS011;56291;53.960;27.550;2023-03-23T14:01:02;11.43;;;7.97;;
69183;SDS011;56291;53.960;27.550;2023-03-23T14:03:42;12.57;;;7.95;;
69183;SDS011;56291;53.960;27.550;2023-03-23T14:06:16;12.13;;;8.00;;
69183;SDS011;56291;53.960;27.550;2023-03-23T14:08:50;11.50;;;7.60;;
69183;SDS011;56291;53.960;27.550;2023-03-23T14:11:26;13.65;;;7.82;;
69183;SDS011;56291;53.960;27.550;2023-03-23T14:13:59;11.18;;;7.90;;
69183;SDS011;56291;53.960;27.550;2023-03-23T14:16:37;11.48;;;7.32;;
69183;SDS011;56291;53.960;27.550;2023-03-23T14:19:25;12.60;;;8.20;;
69183;SDS011;56291;53.960;27.550;2023-03-23T14:21:59;13.35;;;7.18;;
69183;SDS011;56291;53.960;27.550;2023-03-23T14:24:31;13.23;;;7.22;;
69183;SDS011;56291;53.960;27.550;2023-03-23T14:27:10;11.20;;;7.25;;
69183;SDS011;56291;53.960;27.550;2023-03-23T14:29:57;11.52;;;7.07;;
69183;SDS011;56291;53.960;27.550;2023-03-23T14:32:29;9.68;;;6.95;;
69183;SDS011;56291;53.960;27.550;2023-03-23T14:34:57;11.82;;;7.45;;
69183;SDS011;56291;53.960;27.550;2023-03-23T14:37:28;11.48;;;7.43;;
69183;SDS011;56291;53.960;27.550;2023-03-23T14:39:55;14.80;;;6.60;;
69183;SDS011;56291;53.960;27.550;2023-03-23T14:42:32;12.35;;;6.70;;
69183;SDS011;56291;53.960;27.550;2023-03-23T14:45:06;10.32;;;6.90;;
69183;SDS011;56291;53.960;27.550;2023-03-23T14:47:50;10.65;;;7.40;;
69183;SDS011;56291;53.960;27.550;2023-03-23T14:52:55;10.10;;;6.93;;
69183;SDS011;56291;53.960;27.550;2023-03-23T14:55:46;11.02;;;6.60;;
69183;SDS011;56291;53.960;27.550;2023-03-23T14:58:14;13.90;;;7.03;;
69183;SDS011;56291;53.960;27.550;2023-03-23T15:00:44;12.88;;;7.88;;
69183;SDS011;56291;53.960;27.550;2023-03-23T15:03:23;9.98;;;6.15;;
69183;SDS011;56291;53.960;27.550;2023-03-23T15:05:57;14.43;;;7.75;;
69183;SDS011;56291;53.960;27.550;2023-03-23T15:08:31;10.52;;;7.40;;
69183;SDS011;56291;53.960;27.550;2023-03-23T15:14:26;11.35;;;6.60;;
69183;SDS011;56291;53.960;27.550;2023-03-23T15:16:56;11.52;;;7.38;;
69183;SDS011;56291;53.960;27.550;2023-03-23T15:19:34;9.00;;;6.47;;
69183;SDS011;56291;53.960;27.550;2023-03-23T15:22:12;10.25;;;6.88;;
69183;SDS011;56291;53.960;27.550;2023-03-23T15:25:22;11.57;;;6.75;;
69183;SDS011;56291;53.960;27.550;2023-03-23T15:27:54;8.57;;;6.25;;
69183;SDS011;56291;53.960;27.550;2023-03-23T15:30:55;11.35;;;6.45;;
69183;SDS011;56291;53.960;27.550;2023-03-23T15:33:28;8.80;;;6.22;;
69183;SDS011;56291;53.960;27.550;2023-03-23T15:41:26;11.15;;;6.40;;
69183;SDS011;56291;53.960;27.550;2023-03-23T15:47:18;9.55;;;6.07;;
69183;SDS011;56291;53.960;27.550;2023-03-23T15:49:46;14.48;;;6.68;;
69183;SDS011;56291;53.960;27.550;2023-03-23T15:52:26;10.00;;;7.03;;
69183;SDS011;56291;53.960;27.550;2023-03-23T15:54:53;10.75;;;6.80;;
69183;SDS011;56291;53.960;27.550;2023-03-23T15:57:19;11.27;;;6.10;;
69183;SDS011;56291;53.960;27.550;2023-03-23T15:59:52;11.57;;;6.80;;
69183;SDS011;56291;53.960;27.550;2023-03-23T16:02:21;14.82;;;7.10;;
69183;SDS011;56291;53.960;27.550;2023-03-23T16:04:49;10.43;;;6.50;;
69183;SDS011;56291;53.960;27.550;2023-03-23T16:07:16;9.88;;;6.18;;
69183;SDS011;56291;53.960;27.550;2023-03-23T16:09:47;9.38;;;5.80;;
69183;SDS011;56291;53.960;27.550;2023-03-23T16:12:14;7.65;;;5.78;;
69183;SDS011;56291;53.960;27.550;2023-03-23T16:14:40;9.20;;;6.40;;
69183;SDS011;56291;53.960;27.550;2023-03-23T16:17:09;11.25;;;6.75;;
69183;SDS011;56291;53.960;27.550;2023-03-23T16:19:39;10.38;;;6.78;;
69183;SDS011;56291;53.960;27.550;2023-03-23T16:22:06;11.75;;;7.40;;
69183;SDS011;56291;53.960;27.550;2023-03-23T16:24:33;11.25;;;7.55;;
69183;SDS011;56291;53.960;27.550;2023-03-23T16:26:59;13.02;;;6.70;;
69183;SDS011;56291;53.960;27.550;2023-03-23T16:29:26;10.85;;;6.80;;
69183;SDS011;56291;53.960;27.550;2023-03-23T16:31:52;15.18;;;7.35;;
69183;SDS011;56291;53.960;27.550;2023-03-23T16:34:18;12.13;;;7.13;;
69183;SDS011;56291;53.960;27.550;2023-03-23T16:36:44;10.68;;;6.85;;
69183;SDS011;56291;53.960;27.550;2023-03-23T16:39:11;13.52;;;7.50;;
69183;SDS011;56291;53.960;27.550;2023-03-23T16:41:37;12.13;;;8.40;;
69183;SDS011;56291;53.960;27.550;2023-03-23T16:44:05;11.93;;;7.00;;
69183;SDS011;56291;53.960;27.550;2023-03-23T16:46:31;13.15;;;7.78;;
69183;SDS011;56291;53.960;27.550;2023-03-23T16:48:58;12.13;;;7.88;;
69183;SDS011;56291;53.960;27.550;2023-03-23T16:51:25;9.93;;;6.95;;
69183;SDS011;56291;53.960;27.550;2023-03-23T16:53:51;11.38;;;7.07;;
69183;SDS011;56291;53.960;27.550;2023-03-23T16:56:17;9.93;;;6.95;;
69183;SDS011;56291;53.960;27.550;2023-03-23T16:58:43;11.10;;;6.93;;
69183;SDS011;56291;53.960;27.550;2023-03-23T17:01:10;12.07;;;6.82;;
69183;SDS011;56291;53.960;27.550;2023-03-23T17:03:37;16.58;;;8.32;;
69183;SDS011;56291;53.960;27.550;2023-03-23T17:06:07;10.25;;;6.72;;
69183;SDS011;56291;53.960;27.550;2023-03-23T17:08:34;11.05;;;6.93;;
69183;SDS011;56291;53.960;27.550;2023-03-23T17:14:00;10.27;;;7.00;;
69183;SDS011;56291;53.960;27.550;2023-03-23T17:16:28;8.07;;;6.07;;
69183;SDS011;56291;53.960;27.550;2023-03-23T17:18:56;14.32;;;6.93;;
69183;SDS011;56291;53.960;27.550;2023-03-23T17:21:22;11.82;;;7.25;;
69183;SDS011;56291;53.960;27.550;2023-03-23T17:23:51;10.50;;;6.88;;
69183;SDS011;56291;53.960;27.550;2023-03-23T17:26:17;11.10;;;6.85;;
69183;SDS011;56291;53.960;27.550;2023-03-23T17:28:44;10.32;;;6.57;;
69183;SDS011;56291;53.960;27.550;2023-03-23T17:31:11;9.40;;;6.40;;
69183;SDS011;56291;53.960;27.550;2023-03-23T17:33:37;10.82;;;6.35;;
69183;SDS011;56291;53.960;27.550;2023-03-23T17:36:03;11.80;;;6.18;;
69183;SDS011;56291;53.960;27.550;2023-03-23T17:38:42;8.82;;;6.32;;
69183;SDS011;56291;53.960;27.550;2023-03-23T17:41:08;9.82;;;6.30;;
69183;SDS011;56291;53.960;27.550;2023-03-23T17:43:35;10.20;;;6.30;;
69183;SDS011;56291;53.960;27.550;2023-03-23T17:46:05;10.15;;;6.43;;
69183;SDS011;56291;53.960;27.550;2023-03-23T17:48:33;11.15;;;6.20;;
69183;SDS011;56291;53.960;27.550;2023-03-23T17:51:04;9.52;;;5.90;;
69183;SDS011;56291;53.960;27.550;2023-03-23T17:53:31;10.80;;;6.32;;
69183;SDS011;56291;53.960;27.550;2023-03-23T17:55:59;10.13;;;6.40;;
69183;SDS011;56291;53.960;27.550;2023-03-23T17:58:27;9.23;;;6.20;;
69183;SDS011;56291;53.960;27.550;2023-03-23T18:00:53;10.82;;;6.28;;
69183;SDS011;56291;53.960;27.550;2023-03-23T18:03:21;9.60;;;5.80;;
69183;SDS011;56291;53.960;27.550;2023-03-23T18:05:47;9.13;;;6.53;;
69183;SDS011;56291;53.960;27.550;2023-03-23T18:08:17;10.27;;;6.18;;
69183;SDS011;56291;53.960;27.550;2023-03-23T18:10:47;11.63;;;6.25;;
69183;SDS011;56291;53.960;27.550;2023-03-23T18:13:14;11.65;;;5.90;;
69183;SDS011;56291;53.960;27.550;2023-03-23T18:15:42;10.77;;;6.00;;
69183;SDS011;56291;53.960;27.550;2023-03-23T18:18:10;10.63;;;5.75;;
69183;SDS011;56291;53.960;27.550;2023-03-23T18:23:33;9.38;;;6.10;;
